Time;durP1;ratioP1;P1;durP2;ratioP2;P2;SDS_P1;SDS_P2;PMS_P1;PMS_P2;Temp;Humidity;BMP_temperature;BMP_pressure;BME280_temperature;BME280_humidity;BME280_pressure;Samples;Min_cycle;Max_cycle;Signal;HPM_P1;HPM_P2
2022/11/25 00:02:43;;;;;;;6.20;1.40;;;16.10;65.40;;;;;;10452371;28;20017;-53
2022/11/25 00:07:44;;;;;;;5.55;1.63;;;16.10;65.20;;;;;;10435373;28;20084;-58
2022/11/25 00:12:44;;;;;;;4.47;1.48;;;16.10;65.20;;;;;;10451750;28;20103;-57
2022/11/25 00:17:45;;;;;;;4.28;1.55;;;16.10;65.40;;;;;;10451454;28;20071;-58
2022/11/25 00:22:46;;;;;;;5.95;1.70;;;16.00;65.60;;;;;;10451286;28;20033;-56
2022/11/25 00:27:46;;;;;;;4.43;1.65;;;16.10;65.40;;;;;;10452821;28;20048;-56
2022/11/25 00:32:47;;;;;;;4.22;1.35;;;16.10;65.30;;;;;;10452008;28;20519;-54
2022/11/25 00:37:48;;;;;;;10.48;2.92;;;16.10;65.40;;;;;;10451875;28;20072;-56
2022/11/25 00:48:07;;;;;;;3.95;2.00;;;16.10;65.30;;;;;;10451808;28;20029;-57
2022/11/25 00:53:08;;;;;;;6.50;1.70;;;16.10;65.30;;;;;;10451347;28;20075;-56
2022/11/25 00:58:09;;;;;;;3.55;2.00;;;16.10;65.70;;;;;;10450892;28;20021;-58
2022/11/25 01:03:10;;;;;;;3.55;1.23;;;16.10;65.70;;;;;;10449628;28;20068;-54
2022/11/25 01:08:11;;;;;;;3.72;1.58;;;16.00;65.90;;;;;;10450767;28;20028;-56
2022/11/25 01:13:12;;;;;;;2.60;1.30;;;15.90;66.10;;;;;;10449588;28;20559;-56
2022/11/25 01:18:12;;;;;;;4.32;2.47;;;15.80;66.30;;;;;;10409561;28;20059;-56
2022/11/25 01:23:13;;;;;;;5.13;2.13;;;15.80;66.50;;;;;;10450582;28;20059;-57
2022/11/25 01:28:14;;;;;;;3.75;1.58;;;15.80;66.60;;;;;;10449963;28;20170;-56
2022/11/25 01:33:14;;;;;;;4.63;1.60;;;15.90;66.20;;;;;;10448774;28;20021;-58
2022/11/25 01:38:15;;;;;;;4.13;1.40;;;15.90;65.90;;;;;;10458518;28;20124;-57
2022/11/25 01:43:16;;;;;;;3.17;1.73;;;16.00;65.90;;;;;;10448051;28;20052;-57
2022/11/25 01:48:33;;;;;;;3.28;1.30;;;15.90;65.80;;;;;;10448970;28;20096;-58
2022/11/25 01:53:34;;;;;;;7.78;1.90;;;15.90;66.00;;;;;;10445648;28;20096;-58
2022/11/25 01:58:36;;;;;;;4.22;1.77;;;16.00;65.90;;;;;;10446553;28;20483;-57
2022/11/25 02:03:42;;;;;;;3.60;1.58;;;16.00;65.80;;;;;;10447424;28;20476;-57
2022/11/25 02:08:48;;;;;;;3.90;1.50;;;16.10;65.40;;;;;;10447135;28;20060;-54
2022/11/25 02:13:50;;;;;;;4.65;1.65;;;16.20;65.40;;;;;;10448371;28;20110;-56
2022/11/25 02:18:51;;;;;;;4.57;1.83;;;16.10;65.50;;;;;;10448644;28;20028;-56
2022/11/25 02:24:12;;;;;;;3.50;1.60;;;16.00;65.70;;;;;;10446776;28;20057;-56
2022/11/25 02:29:13;;;;;;;5.15;1.30;;;15.90;65.90;;;;;;10446580;28;20040;-56
2022/11/25 02:34:13;;;;;;;3.42;1.63;;;16.10;65.80;;;;;;10446314;28;20047;-57
2022/11/25 02:39:14;;;;;;;3.60;2.17;;;16.10;65.50;;;;;;10451774;28;20096;-57
2022/11/25 02:44:15;;;;;;;3.88;1.92;;;16.10;65.70;;;;;;10446017;28;20020;-57
2022/11/25 02:49:16;;;;;;;4.43;1.85;;;16.00;65.80;;;;;;10446014;28;20025;-56
2022/11/25 02:54:17;;;;;;;4.65;1.27;;;16.10;65.90;;;;;;10446596;28;20104;-58
2022/11/25 02:59:17;;;;;;;3.25;1.58;;;16.10;65.60;;;;;;10445111;28;20096;-57
2022/11/25 03:04:18;;;;;;;10.25;1.90;;;16.10;65.60;;;;;;10445557;28;20410;-57
2022/11/25 03:09:19;;;;;;;5.05;1.92;;;16.10;65.70;;;;;;10444686;28;20021;-58
2022/11/25 03:14:20;;;;;;;3.25;1.70;;;16.00;65.90;;;;;;10428182;28;20120;-56
2022/11/25 03:19:20;;;;;;;7.20;1.70;;;16.10;65.70;;;;;;10444883;28;20076;-55
2022/11/25 03:24:21;;;;;;;4.20;1.67;;;16.10;65.60;;;;;;10446409;28;20100;-57
2022/11/25 03:29:21;;;;;;;3.90;1.30;;;16.10;65.70;;;;;;10445979;28;20640;-57
2022/11/25 03:34:22;;;;;;;3.35;1.65;;;16.10;65.90;;;;;;10445708;28;20123;-57
2022/11/25 03:39:23;;;;;;;5.15;1.40;;;16.10;66.00;;;;;;10479570;28;20127;-57
2022/11/25 03:44:23;;;;;;;3.00;1.55;;;16.00;66.10;;;;;;10444877;28;20032;-55
2022/11/25 03:49:24;;;;;;;4.65;1.60;;;16.10;66.00;;;;;;10444221;28;20035;-58
2022/11/25 03:54:25;;;;;;;4.03;1.38;;;16.10;65.80;;;;;;10444242;28;20033;-56
2022/11/25 03:59:26;;;;;;;4.05;1.50;;;16.10;65.90;;;;;;10443760;28;20112;-56
2022/11/25 04:04:27;;;;;;;4.07;1.27;;;16.10;66.00;;;;;;10444977;28;20100;-57
2022/11/25 04:09:28;;;;;;;5.35;2.00;;;16.00;66.10;;;;;;10444357;28;20033;-57
2022/11/25 04:14:29;;;;;;;3.42;1.70;;;16.00;66.20;;;;;;10445008;28;20017;-57
2022/11/25 04:19:30;;;;;;;2.60;1.40;;;15.90;67.00;;;;;;10447100;28;20690;-56
2022/11/25 04:24:31;;;;;;;3.85;1.48;;;16.00;66.40;;;;;;10451296;28;20105;-56
2022/11/25 04:29:31;;;;;;;4.63;1.50;;;16.00;66.20;;;;;;10451307;28;20088;-57
2022/11/25 04:34:32;;;;;;;3.45;1.27;;;16.00;66.20;;;;;;10451879;28;20064;-57
2022/11/25 04:39:32;;;;;;;3.38;1.38;;;15.90;66.40;;;;;;10451088;28;20531;-55
2022/11/25 04:44:33;;;;;;;2.70;1.23;;;15.90;66.60;;;;;;10449798;28;20100;-56
2022/11/25 04:49:34;;;;;;;7.15;2.28;;;15.80;66.80;;;;;;10451874;28;20045;-57
2022/11/25 04:54:34;;;;;;;3.75;1.83;;;16.00;66.40;;;;;;10451541;28;20499;-57
2022/11/25 04:59:38;;;;;;;3.45;1.02;;;16.10;66.00;;;;;;10450446;28;20580;-57
2022/11/25 05:04:40;;;;;;;3.58;1.35;;;16.10;66.00;;;;;;10450372;28;20127;-56
2022/11/25 05:09:42;;;;;;;5.75;1.50;;;16.10;66.00;;;;;;10450938;28;20018;-57
2022/11/25 05:14:43;;;;;;;2.75;1.05;;;16.10;66.20;;;;;;10450815;28;20021;-56
2022/11/25 05:19:44;;;;;;;3.92;1.33;;;16.00;66.20;;;;;;10449691;28;20025;-61
2022/11/25 05:24:46;;;;;;;4.18;1.30;;;16.00;66.20;;;;;;10448505;28;20071;-58
2022/11/25 05:29:47;;;;;;;3.15;1.02;;;16.10;66.00;;;;;;10448660;28;20503;-55
2022/11/25 05:34:48;;;;;;;4.15;1.00;;;16.20;65.90;;;;;;10449299;28;20079;-56
2022/11/25 05:39:49;;;;;;;3.55;1.33;;;16.10;65.80;;;;;;10447461;28;20113;-57
2022/11/25 05:44:49;;;;;;;2.25;1.02;;;16.10;66.00;;;;;;10449174;28;20147;-56
2022/11/25 05:49:50;;;;;;;4.00;2.00;;;16.10;66.30;;;;;;10448343;28;20061;-57
2022/11/25 05:54:50;;;;;;;2.67;1.48;;;16.00;66.50;;;;;;10448746;28;20128;-58
2022/11/25 05:59:51;;;;;;;10.68;2.60;;;16.10;66.30;;;;;;10431006;28;20076;-57
2022/11/25 06:04:52;;;;;;;11.25;2.50;;;16.30;68.20;;;;;;10445163;28;20029;-58
2022/11/25 06:09:53;;;;;;;7.85;2.40;;;16.40;67.00;;;;;;10448566;28;20071;-57
2022/11/25 06:14:53;;;;;;;8.13;3.47;;;16.50;68.80;;;;;;10447285;28;20120;-57
2022/11/25 06:19:54;;;;;;;7.78;2.78;;;16.40;68.40;;;;;;10448479;28;20059;-57
2022/11/25 06:24:54;;;;;;;6.93;4.05;;;16.30;69.50;;;;;;10446066;28;20056;-55
2022/11/25 06:29:55;;;;;;;6.72;3.40;;;16.20;69.30;;;;;;10446635;28;20053;-56
2022/11/25 06:34:56;;;;;;;10.80;4.07;;;16.20;69.90;;;;;;10445678;28;20041;-56
2022/11/25 06:39:56;;;;;;;12.18;3.20;;;16.10;70.00;;;;;;10451159;28;20132;-55
2022/11/25 06:44:57;;;;;;;11.82;3.88;;;16.10;69.60;;;;;;10446223;28;21470;-55
2022/11/25 06:49:58;;;;;;;13.25;3.63;;;16.10;69.70;;;;;;10441905;28;20041;-55
2022/11/25 06:54:59;;;;;;;11.15;3.33;;;16.10;69.60;;;;;;10442002;28;20155;-54
2022/11/25 06:59:59;;;;;;;14.57;4.78;;;16.00;69.60;;;;;;10446782;28;20064;-57
2022/11/25 07:05:00;;;;;;;7.97;3.20;;;16.00;70.10;;;;;;10441652;28;20112;-57
2022/11/25 07:10:01;;;;;;;14.23;3.97;;;15.90;70.20;;;;;;10440987;28;20439;-54
2022/11/25 07:15:02;;;;;;;11.27;3.45;;;16.00;70.30;;;;;;10441345;28;20406;-55
2022/11/25 07:20:04;;;;;;;11.77;4.30;;;16.00;70.40;;;;;;10442689;28;20151;-54
2022/11/25 07:25:05;;;;;;;16.55;4.43;;;15.90;70.50;;;;;;10445182;28;20020;-54
2022/11/25 07:30:07;;;;;;;17.60;4.45;;;15.90;70.80;;;;;;10443696;28;20075;-55
2022/11/25 07:35:07;;;;;;;13.65;3.42;;;15.90;70.90;;;;;;10442421;28;20143;-54
2022/11/25 07:40:09;;;;;;;25.67;4.32;;;15.80;70.90;;;;;;10443850;28;20029;-56
2022/11/25 07:45:10;;;;;;;17.65;3.53;;;15.80;71.30;;;;;;10443642;28;20027;-57
2022/11/25 07:50:10;;;;;;;15.95;4.57;;;15.80;70.60;;;;;;10444698;28;20084;-55
2022/11/25 07:55:11;;;;;;;20.98;4.47;;;15.70;71.20;;;;;;10448605;28;20028;-55
2022/11/25 08:00:13;;;;;;;23.88;6.80;;;15.70;71.70;;;;;;10469211;28;20132;-56
2022/11/25 08:05:14;;;;;;;26.35;5.63;;;15.60;72.00;;;;;;10451758;28;20025;-57
2022/11/25 08:10:14;;;;;;;38.40;7.18;;;15.60;71.90;;;;;;10453546;28;20464;-58
2022/11/25 08:15:15;;;;;;;34.47;6.25;;;15.60;72.00;;;;;;10453300;28;20022;-57
2022/11/25 08:20:16;;;;;;;33.78;5.88;;;15.60;72.20;;;;;;10446326;28;20405;-56
2022/11/25 08:25:16;;;;;;;24.30;4.47;;;15.60;72.20;;;;;;10447570;28;20614;-57
2022/11/25 08:30:19;;;;;;;39.08;5.82;;;15.70;71.90;;;;;;10443804;28;20175;-55
2022/11/25 08:35:20;;;;;;;30.30;4.57;;;15.70;72.00;;;;;;10451583;28;20033;-55
2022/11/25 08:40:21;;;;;;;23.02;4.43;;;15.70;71.80;;;;;;10451215;28;20460;-56
2022/11/25 08:45:21;;;;;;;22.42;5.78;;;15.80;71.80;;;;;;10451344;28;20640;-56
2022/11/25 08:50:25;;;;;;;25.30;4.80;;;15.70;72.20;;;;;;10450174;28;20041;-54
2022/11/25 08:55:26;;;;;;;22.08;4.20;;;15.60;72.20;;;;;;10451718;28;20013;-55
2022/11/25 09:00:27;;;;;;;20.88;3.88;;;15.60;72.50;;;;;;10453761;28;20052;-56
2022/11/25 09:05:34;;;;;;;22.90;3.83;;;15.70;72.40;;;;;;10453134;28;20747;-55
2022/11/25 09:10:36;;;;;;;21.98;4.57;;;15.80;72.70;;;;;;10453465;28;20025;-56
2022/11/25 09:15:37;;;;;;;14.98;4.30;;;15.80;71.70;;;;;;10453616;28;20021;-56
2022/11/25 09:20:39;;;;;;;40.10;5.03;;;15.80;72.40;;;;;;10454451;28;20047;-56
2022/11/25 09:25:40;;;;;;;29.05;4.88;;;15.70;72.30;;;;;;10454377;28;20021;-57
2022/11/25 09:30:40;;;;;;;16.00;3.92;;;15.70;72.40;;;;;;10454299;28;20400;-56
2022/11/25 09:35:41;;;;;;;18.42;3.55;;;15.60;72.40;;;;;;10451229;28;20041;-57
2022/11/25 09:40:57;;;;;;;20.45;4.10;;;15.60;72.40;;;;;;10449459;28;20475;-56
2022/11/25 09:46:42;;;;;;;22.17;4.38;;;15.60;72.30;;;;;;10451497;28;20083;-56
2022/11/25 09:52:29;;;;;;;14.63;2.85;;;15.60;72.30;;;;;;10440749;28;20025;-56
2022/11/25 09:58:01;;;;;;;11.77;3.03;;;15.60;72.20;;;;;;10452995;28;20109;-55
2022/11/25 10:03:34;;;;;;;18.98;3.22;;;15.60;72.10;;;;;;10451663;28;20029;-57
2022/11/25 10:08:48;;;;;;;10.65;2.85;;;15.70;72.10;;;;;;10451329;28;20025;-57
2022/11/25 10:14:17;;;;;;;8.85;1.92;;;15.70;72.10;;;;;;10435851;28;20119;-56
2022/11/25 10:19:47;;;;;;;10.65;2.67;;;15.70;72.10;;;;;;10450203;28;20440;-57
2022/11/25 10:24:50;;;;;;;;;;;15.70;71.90;;;;;;10451258;28;20036;-54
2022/11/25 10:30:13;;;;;;;13.07;2.88;;;15.80;72.00;;;;;;10450609;28;19996;-56
2022/11/25 10:35:34;;;;;;;11.85;2.55;;;15.80;72.00;;;;;;10450455;28;20102;-57
2022/11/25 10:40:35;;;;;;;13.52;3.38;;;15.80;71.90;;;;;;10450036;28;20120;-56
2022/11/25 10:45:57;;;;;;;8.32;2.33;;;15.90;71.90;;;;;;10450411;28;20479;-55
2022/11/25 10:51:13;;;;;;;9.00;1.80;;;15.90;71.90;;;;;;10449854;28;20052;-56
2022/11/25 10:56:18;;;;;;;7.30;1.88;;;15.90;71.80;;;;;;10450875;28;20014;-55
2022/11/25 11:01:24;;;;;;;11.27;1.80;;;15.90;71.80;;;;;;10450744;28;20022;-56
2022/11/25 11:06:34;;;;;;;11.93;2.50;;;15.90;71.80;;;;;;10449549;28;20089;-56
2022/11/25 11:11:48;;;;;;;10.35;1.80;;;15.90;71.80;;;;;;10449109;28;20033;-56
2022/11/25 11:16:54;;;;;;;4.28;1.45;;;15.90;71.70;;;;;;10450699;28;20075;-57
2022/11/25 11:22:15;;;;;;;6.55;1.52;;;16.00;71.60;;;;;;10449286;28;20025;-57
2022/11/25 11:27:24;;;;;;;7.65;1.88;;;16.00;71.50;;;;;;10449003;28;20031;-57
2022/11/25 11:32:28;;;;;;;5.90;2.45;;;16.10;71.40;;;;;;10449934;28;20465;-55
2022/11/25 11:37:40;;;;;;;7.15;1.90;;;16.10;71.30;;;;;;10448526;28;20145;-56
2022/11/25 11:43:06;;;;;;;3.92;1.17;;;16.10;71.20;;;;;;10448363;28;20621;-56
2022/11/25 11:48:29;;;;;;;5.07;1.33;;;16.10;71.30;;;;;;10438730;28;20017;-56
2022/11/25 11:53:48;;;;;;;7.35;1.48;;;16.10;71.20;;;;;;10449365;28;20029;-58
2022/11/25 11:59:19;;;;;;;5.18;1.40;;;16.10;71.00;;;;;;10448295;28;20563;-56
2022/11/25 12:04:42;;;;;;;5.90;1.98;;;16.10;71.00;;;;;;10448363;28;20025;-57
2022/11/25 12:10:00;;;;;;;4.72;1.38;;;16.10;70.90;;;;;;10448161;28;20024;-57
2022/11/25 12:15:44;;;;;;;3.08;1.20;;;16.20;71.00;;;;;;10432085;28;20461;-55
2022/11/25 12:20:56;;;;;;;4.90;2.03;;;16.20;71.00;;;;;;10431417;28;20029;-56
2022/11/25 12:26:10;;;;;;;3.72;1.88;;;16.20;71.00;;;;;;10447870;28;20023;-56
2022/11/25 12:31:16;;;;;;;5.50;1.27;;;16.20;71.00;;;;;;10448101;28;20112;-57
2022/11/25 12:36:42;;;;;;;5.15;1.38;;;16.10;71.10;;;;;;10447275;28;20451;-56
2022/11/25 12:42:04;;;;;;;3.53;1.02;;;16.00;71.20;;;;;;10452474;28;20041;-57
2022/11/25 12:47:10;;;;;;;3.30;1.10;;;16.00;71.20;;;;;;10454843;28;20479;-56
2022/11/25 12:52:29;;;;;;;4.13;1.20;;;15.90;71.00;;;;;;10454585;28;20028;-55
2022/11/25 12:58:03;;;;;;;4.93;1.13;;;15.90;71.20;;;;;;10455267;28;20032;-56
2022/11/25 13:03:36;;;;;;;4.20;1.55;;;15.90;71.10;;;;;;10455540;28;20028;-57
2022/11/25 13:09:15;;;;;;;4.20;1.00;;;15.90;71.30;;;;;;10455170;28;20435;-57
2022/11/25 13:15:12;;;;;;;6.15;2.05;;;15.80;71.30;;;;;;10453376;28;20071;-57
2022/11/25 13:20:28;;;;;;;5.13;1.85;;;15.80;71.30;;;;;;10455029;28;20079;-57
2022/11/25 13:25:29;;;;;;;3.30;1.02;;;15.80;71.40;;;;;;10454221;28;20078;-56
2022/11/25 13:30:32;;;;;;;2.40;1.20;;;15.70;71.30;;;;;;10454332;28;20070;-55
2022/11/25 13:35:53;;;;;;;5.07;1.15;;;15.70;71.30;;;;;;10453259;28;20423;-56
2022/11/25 13:41:40;;;;;;;3.88;1.05;;;15.70;71.40;;;;;;10436491;28;20067;-57
2022/11/25 13:46:46;;;;;;;2.33;0.95;;;15.70;71.60;;;;;;10453200;28;20120;-57
2022/11/25 13:52:04;;;;;;;3.05;0.82;;;15.60;71.60;;;;;;10451043;28;20476;-56
2022/11/25 13:57:11;;;;;;;2.33;0.85;;;15.60;71.60;;;;;;10452046;28;20060;-55
2022/11/25 14:02:27;;;;;;;2.17;1.10;;;15.60;71.50;;;;;;10451720;28;20410;-56
2022/11/25 14:08:15;;;;;;;3.20;0.85;;;15.60;71.70;;;;;;10451765;28;20029;-56
2022/11/25 14:13:55;;;;;;;4.28;1.23;;;15.60;71.70;;;;;;10433609;28;20041;-56
2022/11/25 14:19:19;;;;;;;2.83;0.95;;;15.60;71.70;;;;;;10451553;28;20021;-56
2022/11/25 14:24:37;;;;;;;4.47;1.77;;;15.50;71.60;;;;;;10447114;28;20070;-56
2022/11/25 14:30:03;;;;;;;2.53;0.75;;;15.50;71.70;;;;;;10450761;28;20060;-56
2022/11/25 14:35:21;;;;;;;2.50;0.70;;;15.50;71.70;;;;;;10450405;28;20116;-55
2022/11/25 14:40:43;;;;;;;5.55;1.88;;;15.50;71.70;;;;;;10451471;28;20447;-57
2022/11/25 14:45:44;;;;;;;2.35;0.88;;;15.50;71.70;;;;;;10450226;28;20025;-57
2022/11/25 14:50:59;;;;;;;4.07;0.90;;;15.50;71.60;;;;;;10451228;28;20040;-56
2022/11/25 14:56:01;;;;;;;3.75;1.10;;;15.50;71.70;;;;;;10449597;28;20013;-57
2022/11/25 15:01:15;;;;;;;2.25;0.90;;;15.50;71.60;;;;;;10450835;28;20375;-57
2022/11/25 15:06:21;;;;;;;2.72;1.27;;;15.50;72.10;;;;;;10449800;28;20033;-57
2022/11/25 15:11:30;;;;;;;2.80;0.90;;;15.50;71.60;;;;;;10450557;28;20028;-56
2022/11/25 15:16:42;;;;;;;1.67;0.93;;;15.50;71.60;;;;;;10448916;28;20036;-57
2022/11/25 15:21:44;;;;;;;1.58;0.70;;;15.50;71.70;;;;;;10449200;28;20078;-56
2022/11/25 15:26:55;;;;;;;2.63;1.23;;;15.50;71.50;;;;;;10432507;28;20066;-57
2022/11/25 15:31:57;;;;;;;2.85;0.77;;;15.50;71.50;;;;;;10450027;28;20830;-57
2022/11/25 15:37:01;;;;;;;2.58;1.00;;;15.60;71.40;;;;;;10448766;28;20076;-55
2022/11/25 15:42:06;;;;;;;2.13;0.95;;;15.50;71.50;;;;;;10449151;28;20104;-57
2022/11/25 15:47:25;;;;;;;5.05;0.80;;;15.60;71.30;;;;;;10432644;28;20491;-56
2022/11/25 15:52:30;;;;;;;2.60;1.17;;;15.60;71.20;;;;;;10449002;28;20048;-56
2022/11/25 15:57:37;;;;;;;2.03;0.57;;;15.60;71.30;;;;;;10449006;28;20025;-57
2022/11/25 16:02:43;;;;;;;2.22;0.93;;;15.50;71.20;;;;;;10450006;28;20024;-56
2022/11/25 16:07:50;;;;;;;5.57;2.00;;;15.60;71.30;;;;;;10450061;28;20057;-55
2022/11/25 16:13:18;;;;;;;6.38;0.80;;;15.50;71.30;;;;;;10449418;28;20102;-57
2022/11/25 16:18:24;;;;;;;16.38;2.00;;;15.50;71.50;;;;;;10457479;28;20028;-57
2022/11/25 16:23:26;;;;;;;18.88;2.60;;;15.50;71.90;;;;;;10456345;28;20419;-57
2022/11/25 16:28:26;;;;;;;18.52;3.47;;;15.60;71.40;;;;;;10457143;28;20024;-56
2022/11/25 16:33:27;;;;;;;22.70;3.75;;;15.60;71.60;;;;;;10445138;28;20502;-55
2022/11/25 16:38:28;;;;;;;18.80;4.25;;;15.60;71.90;;;;;;10453875;28;20055;-54
2022/11/25 16:43:28;;;;;;;17.75;3.40;;;15.70;72.00;;;;;;10455721;28;20096;-55
2022/11/25 16:48:30;;;;;;;17.65;2.75;;;15.80;71.60;;;;;;10451324;28;20563;-56
2022/11/25 16:53:31;;;;;;;9.57;2.33;;;15.80;71.60;;;;;;10448712;28;20128;-55
2022/11/25 16:58:31;;;;;;;9.48;2.10;;;15.70;72.00;;;;;;10455081;28;20693;-55
2022/11/25 17:03:33;;;;;;;11.05;2.63;;;15.70;72.10;;;;;;10453887;28;20048;-55
2022/11/25 17:08:33;;;;;;;10.70;2.40;;;15.60;72.20;;;;;;10455274;28;20433;-57
2022/11/25 17:13:39;;;;;;;10.30;2.60;;;15.70;71.80;;;;;;10454677;28;20029;-54
2022/11/25 17:18:40;;;;;;;12.00;3.45;;;15.70;72.70;;;;;;10453461;28;20018;-57
2022/11/25 17:23:45;;;;;;;10.18;2.83;;;15.80;73.40;;;;;;10454258;28;20025;-55
2022/11/25 17:28:56;;;;;;;13.05;2.92;;;16.10;73.70;;;;;;10453490;28;20024;-59
2022/11/25 17:33:57;;;;;;;16.95;3.33;;;16.20;73.30;;;;;;10453676;28;20048;-57
2022/11/25 17:38:58;;;;;;;16.50;2.92;;;16.20;73.40;;;;;;10453233;28;20109;-56
2022/11/25 17:44:00;;;;;;;18.98;3.25;;;16.10;72.50;;;;;;10453067;28;20468;-55
2022/11/25 17:49:00;;;;;;;16.35;2.85;;;16.00;72.50;;;;;;10452140;28;20021;-56
2022/11/25 17:54:01;;;;;;;16.05;2.92;;;15.90;73.00;;;;;;10453745;28;20072;-53
2022/11/25 17:59:09;;;;;;;10.43;2.85;;;15.90;72.80;;;;;;10453945;28;20033;-55
2022/11/25 18:04:22;;;;;;;10.48;2.95;;;15.90;72.80;;;;;;10452291;28;20112;-56
2022/11/25 18:09:23;;;;;;;10.15;2.58;;;15.80;72.80;;;;;;10453117;28;20017;-53
2022/11/25 18:14:31;;;;;;;12.27;2.65;;;15.80;72.80;;;;;;10454761;28;20037;-55
2022/11/25 18:19:33;;;;;;;8.32;2.92;;;15.70;72.70;;;;;;10450138;28;20033;-56
2022/11/25 18:24:35;;;;;;;13.95;2.45;;;15.70;72.80;;;;;;10450615;28;20025;-55
2022/11/25 18:29:36;;;;;;;7.03;2.33;;;15.60;73.10;;;;;;10449789;28;20456;-56
2022/11/25 18:34:37;;;;;;;10.63;2.22;;;15.80;72.60;;;;;;10450282;28;20603;-55
2022/11/25 18:39:38;;;;;;;9.82;2.47;;;15.90;72.90;;;;;;10448574;28;20112;-56
2022/11/25 18:44:42;;;;;;;7.65;2.15;;;15.90;72.70;;;;;;10450721;28;20028;-55
2022/11/25 18:49:42;;;;;;;12.35;2.50;;;15.90;72.90;;;;;;10450417;28;20029;-54
2022/11/25 18:54:43;;;;;;;11.50;3.65;;;15.90;72.70;;;;;;10449676;28;20094;-55
2022/11/25 18:59:45;;;;;;;14.27;2.70;;;15.90;72.50;;;;;;10449436;28;20044;-55
2022/11/25 19:04:46;;;;;;;14.95;2.10;;;15.90;72.60;;;;;;10482259;28;20025;-56
2022/11/25 19:09:46;;;;;;;7.43;3.15;;;15.80;72.50;;;;;;10449053;28;20456;-56
2022/11/25 19:14:49;;;;;;;6.88;2.60;;;15.70;72.70;;;;;;10450449;28;20539;-55
2022/11/25 19:19:49;;;;;;;10.75;2.83;;;15.60;72.50;;;;;;10432538;28;20486;-56
2022/11/25 19:24:50;;;;;;;6.00;2.33;;;15.60;72.60;;;;;;10450388;28;20067;-56
2022/11/25 19:29:51;;;;;;;7.93;2.42;;;15.60;72.60;;;;;;10444852;28;20079;-56
2022/11/25 19:35:07;;;;;;;11.23;3.47;;;15.50;72.90;;;;;;10449159;28;20128;-55
2022/11/25 19:40:17;;;;;;;13.70;4.13;;;15.60;72.50;;;;;;10438303;28;20112;-55
2022/11/25 19:45:19;;;;;;;11.32;3.78;;;15.60;72.80;;;;;;10443227;28;20021;-57
2022/11/25 19:50:27;;;;;;;9.57;2.85;;;15.60;73.10;;;;;;10448952;28;20018;-55
2022/11/25 19:55:28;;;;;;;9.00;3.47;;;15.60;73.20;;;;;;10452710;28;20099;-53
2022/11/25 20:00:29;;;;;;;12.88;3.72;;;15.50;73.20;;;;;;10452936;28;20017;-59
2022/11/25 20:05:36;;;;;;;13.30;3.42;;;15.50;73.20;;;;;;10453250;28;20037;-57
2022/11/25 20:10:37;;;;;;;8.93;3.10;;;15.50;73.30;;;;;;10451230;28;20082;-55
2022/11/25 20:15:38;;;;;;;9.23;3.08;;;15.50;73.20;;;;;;10452752;28;20112;-54
2022/11/25 20:20:41;;;;;;;10.07;3.22;;;15.50;72.80;;;;;;10451247;28;20052;-54
2022/11/25 20:25:46;;;;;;;9.27;3.03;;;15.60;72.80;;;;;;10452068;28;20025;-56
2022/11/25 20:30:47;;;;;;;10.05;2.95;;;15.60;73.20;;;;;;10449684;28;20028;-55
2022/11/25 20:35:51;;;;;;;8.07;3.00;;;15.50;73.30;;;;;;10451126;28;20059;-55
2022/11/25 20:40:56;;;;;;;15.07;4.50;;;15.50;73.40;;;;;;10451320;28;20041;-56
2022/11/25 20:45:59;;;;;;;7.25;3.10;;;15.50;73.30;;;;;;10451559;28;20025;-56
2022/11/25 20:51:01;;;;;;;9.15;3.67;;;15.50;73.10;;;;;;10450553;28;20062;-56
2022/11/25 20:56:03;;;;;;;9.50;2.80;;;15.50;73.10;;;;;;10450477;28;20388;-57
2022/11/25 21:01:05;;;;;;;6.95;2.83;;;15.50;73.10;;;;;;10449339;28;20025;-56
2022/11/25 21:06:22;;;;;;;6.80;3.10;;;15.50;72.50;;;;;;10449902;28;20017;-56
2022/11/25 21:11:24;;;;;;;6.15;2.75;;;15.50;72.30;;;;;;10449483;28;20041;-56
2022/11/25 21:16:25;;;;;;;9.93;3.45;;;15.60;72.10;;;;;;10451078;28;20056;-55
2022/11/25 21:21:32;;;;;;;6.97;3.17;;;15.60;71.80;;;;;;10450276;28;20614;-56
2022/11/25 21:26:33;;;;;;;11.85;3.22;;;15.70;71.60;;;;;;10432999;28;20017;-57
2022/11/25 21:31:34;;;;;;;8.95;3.10;;;15.70;71.40;;;;;;10450102;28;20044;-56
2022/11/25 21:36:35;;;;;;;6.32;2.50;;;15.70;71.40;;;;;;10448945;28;20075;-56
2022/11/25 21:41:36;;;;;;;8.02;2.88;;;15.70;71.40;;;;;;10448107;28;20028;-56
2022/11/25 21:46:37;;;;;;;5.22;2.40;;;15.70;71.40;;;;;;10448695;28;20025;-57
2022/11/25 21:51:37;;;;;;;4.97;2.55;;;15.70;71.10;;;;;;10449102;28;20151;-56
2022/11/25 21:56:38;;;;;;;5.28;1.92;;;15.80;71.10;;;;;;10449604;28;20660;-57
2022/11/25 22:01:39;;;;;;;6.55;2.47;;;15.70;70.90;;;;;;10444222;28;20483;-55
2022/11/25 22:06:40;;;;;;;4.35;2.58;;;15.80;70.80;;;;;;10447214;28;20429;-54
2022/11/25 22:11:47;;;;;;;7.43;2.42;;;15.80;70.60;;;;;;10447714;28;20437;-56
2022/11/25 22:16:48;;;;;;;5.30;2.40;;;15.90;70.40;;;;;;10436365;28;20036;-57
2022/11/25 22:21:48;;;;;;;4.07;2.13;;;15.90;70.30;;;;;;10447278;28;20395;-56
2022/11/25 22:26:52;;;;;;;3.85;2.20;;;15.90;70.50;;;;;;10448370;28;20116;-55
2022/11/25 22:31:52;;;;;;;7.20;2.90;;;15.80;70.50;;;;;;10446645;28;20033;-56
2022/11/25 22:36:53;;;;;;;5.15;2.42;;;15.80;70.70;;;;;;10447183;28;20046;-57
2022/11/25 22:42:05;;;;;;;6.82;2.17;;;15.80;70.60;;;;;;10446477;28;20063;-56
2022/11/25 22:47:12;;;;;;;4.15;1.80;;;15.80;70.60;;;;;;10446311;28;20033;-57
2022/11/25 22:52:27;;;;;;;4.43;2.22;;;15.80;70.60;;;;;;10445812;28;20037;-57
2022/11/25 22:57:28;;;;;;;8.18;2.92;;;15.80;70.70;;;;;;10434814;28;20048;-56
2022/11/25 23:02:32;;;;;;;4.55;2.22;;;15.80;70.70;;;;;;10445589;28;20477;-55
2022/11/25 23:07:33;;;;;;;5.45;2.35;;;15.80;70.60;;;;;;10445495;28;21685;-57
2022/11/25 23:12:33;;;;;;;5.75;2.50;;;15.80;70.60;;;;;;10461818;28;20151;-56
2022/11/25 23:17:34;;;;;;;8.15;2.45;;;15.80;70.60;;;;;;10446565;28;20563;-55
2022/11/25 23:22:35;;;;;;;7.55;2.50;;;15.80;70.70;;;;;;10461499;28;20112;-56
2022/11/25 23:27:35;;;;;;;4.68;2.53;;;15.80;70.50;;;;;;10425524;28;20111;-56
2022/11/25 23:32:36;;;;;;;5.50;2.42;;;15.80;70.40;;;;;;10444684;28;20079;-56
2022/11/25 23:37:37;;;;;;;6.70;2.38;;;15.80;70.40;;;;;;10444251;28;20412;-57
2022/11/25 23:42:37;;;;;;;5.43;2.22;;;15.80;70.30;;;;;;10445727;28;20025;-56
2022/11/25 23:47:40;;;;;;;4.60;2.28;;;15.80;70.20;;;;;;10444354;28;20394;-55
2022/11/25 23:52:41;;;;;;;4.93;1.83;;;15.80;70.20;;;;;;10434921;28;20065;-57
2022/11/25 23:57:46;;;;;;;3.53;2.10;;;15.80;70.10;;;;;;10443973;28;20025;-56
